sensor_id;sensor_type;location;lat;lon;timestamp;pressure;altitude;pressure_sealevel;temperature;humidity
25664;BME280;13522;50.018;20.014;2023-12-14T00:01:29;97530.27;;;3.70;100.00
25664;BME280;13522;50.018;20.014;2023-12-14T00:04:44;97522.53;;;3.68;100.00
25664;BME280;13522;50.018;20.014;2023-12-14T00:07:56;97519.94;;;3.78;100.00
25664;BME280;13522;50.018;20.014;2023-12-14T00:11:10;97530.30;;;3.79;100.00
25664;BME280;13522;50.018;20.014;2023-12-14T00:14:22;97532.51;;;3.74;100.00
25664;BME280;13522;50.018;20.014;2023-12-14T00:17:35;97532.51;;;3.74;100.00
25664;BME280;13522;50.018;20.014;2023-12-14T00:20:48;97542.31;;;3.72;100.00
25664;BME280;13522;50.018;20.014;2023-12-14T00:24:00;97539.92;;;3.69;100.00
25664;BME280;13522;50.018;20.014;2023-12-14T00:27:14;97538.28;;;3.68;100.00
25664;BME280;13522;50.018;20.014;2023-12-14T00:30:26;97547.94;;;3.68;100.00
25664;BME280;13522;50.018;20.014;2023-12-14T00:33:38;97555.44;;;3.72;100.00
25664;BME280;13522;50.018;20.014;2023-12-14T00:36:51;97552.11;;;3.70;100.00
25664;BME280;13522;50.018;20.014;2023-12-14T00:40:05;97548.78;;;3.68;100.00
25664;BME280;13522;50.018;20.014;2023-12-14T00:43:18;97551.64;;;3.65;100.00
25664;BME280;13522;50.018;20.014;2023-12-14T00:46:31;97556.47;;;3.60;100.00
25664;BME280;13522;50.018;20.014;2023-12-14T00:49:43;97567.67;;;3.62;100.00
25664;BME280;13522;50.018;20.014;2023-12-14T00:52:55;97574.33;;;3.66;100.00
25664;BME280;13522;50.018;20.014;2023-12-14T00:56:10;97571.00;;;3.64;100.00
25664;BME280;13522;50.018;20.014;2023-12-14T00:59:24;97575.55;;;3.62;100.00
25664;BME280;13522;50.018;20.014;2023-12-14T01:02:39;97571.43;;;3.69;100.00
25664;BME280;13522;50.018;20.014;2023-12-14T01:05:52;97569.27;;;3.74;100.00
25664;BME280;13522;50.018;20.014;2023-12-14T01:09:04;97579.30;;;3.69;100.00
25664;BME280;13522;50.018;20.014;2023-12-14T01:12:17;97582.44;;;3.63;100.00
25664;BME280;13522;50.018;20.014;2023-12-14T01:15:31;97586.99;;;3.61;100.00
25664;BME280;13522;50.018;20.014;2023-12-14T01:18:44;97588.67;;;3.62;100.00
25664;BME280;13522;50.018;20.014;2023-12-14T01:21:58;97583.85;;;3.67;100.00
25664;BME280;13522;50.018;20.014;2023-12-14T01:25:11;97585.53;;;3.68;100.00
25664;BME280;13522;50.018;20.014;2023-12-14T01:28:24;97584.42;;;3.71;100.00
25664;BME280;13522;50.018;20.014;2023-12-14T01:31:36;97580.33;;;3.78;100.00
25664;BME280;13522;50.018;20.014;2023-12-14T01:34:49;97575.22;;;3.76;100.00
25664;BME280;13522;50.018;20.014;2023-12-14T01:38:01;97576.86;;;3.77;100.00
25664;BME280;13522;50.018;20.014;2023-12-14T01:41:13;97575.78;;;3.80;100.00
25664;BME280;13522;50.018;20.014;2023-12-14T01:44:28;97578.65;;;3.77;100.00
25664;BME280;13522;50.018;20.014;2023-12-14T01:47:41;97570.67;;;3.78;100.00
25664;BME280;13522;50.018;20.014;2023-12-14T01:50:53;97580.47;;;3.76;100.00
25664;BME280;13522;50.018;20.014;2023-12-14T01:54:06;97581.41;;;3.75;100.00
25664;BME280;13522;50.018;20.014;2023-12-14T01:57:18;97585.72;;;3.76;100.00
25664;BME280;13522;50.018;20.014;2023-12-14T02:00:36;97585.72;;;3.76;100.00
25664;BME280;13522;50.018;20.014;2023-12-14T02:03:52;97576.10;;;3.86;100.00
25664;BME280;13522;50.018;20.014;2023-12-14T02:07:05;97570.99;;;3.94;100.00
25664;BME280;13522;50.018;20.014;2023-12-14T02:10:17;97573.09;;;4.00;100.00
25664;BME280;13522;50.018;20.014;2023-12-14T02:13:32;97570.22;;;4.03;100.00
25664;BME280;13522;50.018;20.014;2023-12-14T02:16:45;97579.75;;;4.04;100.00
25664;BME280;13522;50.018;20.014;2023-12-14T02:19:58;97576.32;;;4.04;100.00
25664;BME280;13522;50.018;20.014;2023-12-14T02:23:10;97577.97;;;4.05;100.00
25664;BME280;13522;50.018;20.014;2023-12-14T02:26:22;97580.45;;;4.06;100.00
25664;BME280;13522;50.018;20.014;2023-12-14T02:29:35;97584.90;;;4.06;100.00
25664;BME280;13522;50.018;20.014;2023-12-14T02:32:47;97597.89;;;4.07;100.00
25664;BME280;13522;50.018;20.014;2023-12-14T02:36:00;97596.03;;;3.98;100.00
25664;BME280;13522;50.018;20.014;2023-12-14T02:39:13;97599.50;;;3.99;100.00
25664;BME280;13522;50.018;20.014;2023-12-14T02:42:26;97616.23;;;3.98;100.00
25664;BME280;13522;50.018;20.014;2023-12-14T02:45:38;97612.31;;;3.92;100.00
25664;BME280;13522;50.018;20.014;2023-12-14T02:48:53;97621.69;;;3.85;100.00
25664;BME280;13522;50.018;20.014;2023-12-14T02:52:09;97632.05;;;3.87;100.00
25664;BME280;13522;50.018;20.014;2023-12-14T02:55:21;97629.70;;;3.84;100.00
25664;BME280;13522;50.018;20.014;2023-12-14T02:58:33;97632.46;;;3.82;100.00
25664;BME280;13522;50.018;20.014;2023-12-14T03:01:45;97630.78;;;3.81;100.00
25664;BME280;13522;50.018;20.014;2023-12-14T03:04:58;97637.17;;;3.88;100.00
25664;BME280;13522;50.018;20.014;2023-12-14T03:08:12;97633.88;;;3.86;100.00
25664;BME280;13522;50.018;20.014;2023-12-14T03:11:25;97642.56;;;3.87;100.00
25664;BME280;13522;50.018;20.014;2023-12-14T03:14:37;97638.58;;;3.92;100.00
25664;BME280;13522;50.018;20.014;2023-12-14T03:17:50;97641.09;;;3.94;100.00
25664;BME280;13522;50.018;20.014;2023-12-14T03:21:06;97650.48;;;3.96;100.00
25664;BME280;13522;50.018;20.014;2023-12-14T03:24:18;97658.36;;;3.96;100.00
25664;BME280;13522;50.018;20.014;2023-12-14T03:27:30;97651.98;;;3.89;100.00
25664;BME280;13522;50.018;20.014;2023-12-14T03:30:44;97651.66;;;3.83;100.00
25664;BME280;13522;50.018;20.014;2023-12-14T03:33:59;97650.84;;;3.82;100.00
25664;BME280;13522;50.018;20.014;2023-12-14T03:37:11;97662.09;;;3.73;100.00
25664;BME280;13522;50.018;20.014;2023-12-14T03:40:26;97665.43;;;3.75;100.00
25664;BME280;13522;50.018;20.014;2023-12-14T03:43:38;97675.18;;;3.84;100.00
25664;BME280;13522;50.018;20.014;2023-12-14T03:46:51;97675.89;;;3.86;100.00
25664;BME280;13522;50.018;20.014;2023-12-14T03:50:06;97682.73;;;3.78;100.00
25664;BME280;13522;50.018;20.014;2023-12-14T03:53:21;97681.18;;;3.75;100.00
25664;BME280;13522;50.018;20.014;2023-12-14T03:56:33;97682.27;;;3.73;100.00
25664;BME280;13522;50.018;20.014;2023-12-14T03:59:48;97687.41;;;3.74;100.00
25664;BME280;13522;50.018;20.014;2023-12-14T04:03:00;97702.89;;;3.77;100.00
25664;BME280;13522;50.018;20.014;2023-12-14T04:06:14;97708.84;;;3.79;100.00
25664;BME280;13522;50.018;20.014;2023-12-14T04:09:26;97718.64;;;3.77;100.00
25664;BME280;13522;50.018;20.014;2023-12-14T04:12:39;97724.60;;;3.79;100.00
25664;BME280;13522;50.018;20.014;2023-12-14T04:15:51;97730.13;;;3.76;100.00
25664;BME280;13522;50.018;20.014;2023-12-14T04:19:06;97728.70;;;3.72;100.00
25664;BME280;13522;50.018;20.014;2023-12-14T04:22:21;97734.91;;;3.71;100.00
25664;BME280;13522;50.018;20.014;2023-12-14T04:25:33;97737.53;;;3.71;100.00
25664;BME280;13522;50.018;20.014;2023-12-14T04:28:46;97741.13;;;3.70;100.00
25664;BME280;13522;50.018;20.014;2023-12-14T04:31:58;97752.78;;;3.77;100.00
25664;BME280;13522;50.018;20.014;2023-12-14T04:35:11;97752.05;;;3.86;100.00
25664;BME280;13522;50.018;20.014;2023-12-14T04:38:23;97772.52;;;3.92;100.00
25664;BME280;13522;50.018;20.014;2023-12-14T04:41:36;97768.67;;;3.96;100.00
25664;BME280;13522;50.018;20.014;2023-12-14T04:44:49;97769.39;;;3.98;100.00
25664;BME280;13522;50.018;20.014;2023-12-14T04:48:01;97761.50;;;3.98;100.00
25664;BME280;13522;50.018;20.014;2023-12-14T04:51:16;97764.27;;;3.97;100.00
25664;BME280;13522;50.018;20.014;2023-12-14T04:54:29;97781.10;;;3.94;100.00
25664;BME280;13522;50.018;20.014;2023-12-14T04:57:43;97772.08;;;3.87;100.00
25664;BME280;13522;50.018;20.014;2023-12-14T05:00:56;97784.36;;;3.87;100.00
25664;BME280;13522;50.018;20.014;2023-12-14T05:04:09;97794.56;;;3.80;100.00
25664;BME280;13522;50.018;20.014;2023-12-14T05:07:22;97788.80;;;3.86;100.00
25664;BME280;13522;50.018;20.014;2023-12-14T05:10:36;97792.81;;;3.90;100.00
25664;BME280;13522;50.018;20.014;2023-12-14T05:13:48;97801.53;;;3.91;100.00
25664;BME280;13522;50.018;20.014;2023-12-14T05:17:01;97801.17;;;3.95;100.00
25664;BME280;13522;50.018;20.014;2023-12-14T05:20:14;97808.58;;;3.90;100.00
25664;BME280;13522;50.018;20.014;2023-12-14T05:23:27;97811.73;;;3.84;100.00
25664;BME280;13522;50.018;20.014;2023-12-14T05:26:39;97812.23;;;3.78;100.00
25664;BME280;13522;50.018;20.014;2023-12-14T05:29:52;97816.38;;;3.81;100.00
25664;BME280;13522;50.018;20.014;2023-12-14T05:33:05;97812.55;;;3.85;100.00
25664;BME280;13522;50.018;20.014;2023-12-14T05:36:18;97822.47;;;3.81;100.00
25664;BME280;13522;50.018;20.014;2023-12-14T05:39:31;97829.42;;;3.71;100.00
25664;BME280;13522;50.018;20.014;2023-12-14T05:42:45;97835.64;;;3.70;100.00
25664;BME280;13522;50.018;20.014;2023-12-14T05:45:58;97842.55;;;3.71;100.00
25664;BME280;13522;50.018;20.014;2023-12-14T05:49:11;97849.71;;;3.69;100.00
25664;BME280;13522;50.018;20.014;2023-12-14T05:52:23;97851.04;;;3.64;100.00
25664;BME280;13522;50.018;20.014;2023-12-14T05:55:38;97858.79;;;3.65;100.00
25664;BME280;13522;50.018;20.014;2023-12-14T05:58:52;97864.52;;;3.59;100.00
25664;BME280;13522;50.018;20.014;2023-12-14T06:02:06;97867.41;;;3.56;100.00
25664;BME280;13522;50.018;20.014;2023-12-14T06:05:18;97874.44;;;3.56;100.00
25664;BME280;13522;50.018;20.014;2023-12-14T06:08:31;97885.52;;;3.59;100.00
25664;BME280;13522;50.018;20.014;2023-12-14T06:11:43;97881.34;;;3.57;100.00
25664;BME280;13522;50.018;20.014;2023-12-14T06:14:57;97883.38;;;3.64;100.00
25664;BME280;13522;50.018;20.014;2023-12-14T06:18:13;97893.40;;;3.59;100.00
25664;BME280;13522;50.018;20.014;2023-12-14T06:21:26;97892.94;;;3.54;100.00
25664;BME280;13522;50.018;20.014;2023-12-14T06:24:42;97900.81;;;3.54;100.00
25664;BME280;13522;50.018;20.014;2023-12-14T06:27:54;97896.51;;;3.53;100.00
25664;BME280;13522;50.018;20.014;2023-12-14T06:31:07;97897.83;;;3.47;100.00
25664;BME280;13522;50.018;20.014;2023-12-14T06:34:24;97901.04;;;3.51;100.00
25664;BME280;13522;50.018;20.014;2023-12-14T06:37:36;97911.06;;;3.57;100.00
25664;BME280;13522;50.018;20.014;2023-12-14T07:19:47;97963.92;;;3.64;100.00
25664;BME280;13522;50.018;20.014;2023-12-14T09:48:38;98155.44;;;4.33;100.00
25664;BME280;13522;50.018;20.014;2023-12-14T10:02:24;98173.23;;;4.40;100.00
25664;BME280;13522;50.018;20.014;2023-12-14T10:19:07;98168.54;;;4.88;100.00
25664;BME280;13522;50.018;20.014;2023-12-14T10:32:19;98176.30;;;5.01;100.00
25664;BME280;13522;50.018;20.014;2023-12-14T10:45:42;98206.67;;;5.05;100.00
25664;BME280;13522;50.018;20.014;2023-12-14T10:49:51;98206.19;;;5.00;100.00
25664;BME280;13522;50.018;20.014;2023-12-14T10:53:57;98209.78;;;4.88;100.00
25664;BME280;13522;50.018;20.014;2023-12-14T10:58:02;98211.38;;;4.79;100.00
25664;BME280;13522;50.018;20.014;2023-12-14T11:02:12;98220.92;;;4.80;100.00
25664;BME280;13522;50.018;20.014;2023-12-14T11:11:09;98225.80;;;4.96;100.00
25664;BME280;13522;50.018;20.014;2023-12-14T11:19:39;98228.69;;;4.93;100.00
25664;BME280;13522;50.018;20.014;2023-12-14T11:23:15;98226.78;;;4.95;100.00
25664;BME280;13522;50.018;20.014;2023-12-14T11:27:13;98238.96;;;4.96;100.00
25664;BME280;13522;50.018;20.014;2023-12-14T11:53:07;98243.28;;;4.97;100.00
25664;BME280;13522;50.018;20.014;2023-12-14T12:01:22;98243.73;;;5.02;100.00
25664;BME280;13522;50.018;20.014;2023-12-14T12:04:59;98248.55;;;4.97;100.00
25664;BME280;13522;50.018;20.014;2023-12-14T12:08:49;98254.52;;;4.99;100.00
25664;BME280;13522;50.018;20.014;2023-12-14T12:12:49;98264.92;;;5.00;100.00
25664;BME280;13522;50.018;20.014;2023-12-14T12:16:41;98272.22;;;4.97;100.00
25664;BME280;13522;50.018;20.014;2023-12-14T12:20:21;98279.86;;;5.00;100.00
25664;BME280;13522;50.018;20.014;2023-12-14T12:24:33;98285.48;;;5.06;100.00
25664;BME280;13522;50.018;20.014;2023-12-14T12:28:32;98289.91;;;5.06;100.00
25664;BME280;13522;50.018;20.014;2023-12-14T12:32:46;98289.91;;;5.06;100.00
25664;BME280;13522;50.018;20.014;2023-12-14T12:36:37;98286.33;;;5.07;100.00
25664;BME280;13522;50.018;20.014;2023-12-14T12:41:00;98287.53;;;5.03;100.00
25664;BME280;13522;50.018;20.014;2023-12-14T12:45:23;98296.13;;;4.94;100.00
25664;BME280;13522;50.018;20.014;2023-12-14T12:58:25;98303.53;;;4.78;100.00
25664;BME280;13522;50.018;20.014;2023-12-14T13:02:42;98316.08;;;4.85;100.00
25664;BME280;13522;50.018;20.014;2023-12-14T13:28:36;98354.48;;;4.77;100.00
25664;BME280;13522;50.018;20.014;2023-12-14T13:32:49;98361.05;;;4.71;100.00
25664;BME280;13522;50.018;20.014;2023-12-14T13:45:20;98371.91;;;4.67;100.00
25664;BME280;13522;50.018;20.014;2023-12-14T13:52:06;98382.30;;;4.68;100.00
25664;BME280;13522;50.018;20.014;2023-12-14T13:56:17;98396.05;;;4.72;100.00
25664;BME280;13522;50.018;20.014;2023-12-14T14:05:16;98421.64;;;4.70;100.00
25664;BME280;13522;50.018;20.014;2023-12-14T14:13:50;98433.84;;;4.71;100.00
25664;BME280;13522;50.018;20.014;2023-12-14T14:18:11;98431.22;;;4.71;100.00
25664;BME280;13522;50.018;20.014;2023-12-14T14:22:11;98444.37;;;4.71;100.00
25664;BME280;13522;50.018;20.014;2023-12-14T14:27:06;98451.53;;;4.69;100.00
25664;BME280;13522;50.018;20.014;2023-12-14T14:53:16;98511.51;;;4.64;100.00
25664;BME280;13522;50.018;20.014;2023-12-14T15:06:27;98522.03;;;4.64;100.00
25664;BME280;13522;50.018;20.014;2023-12-14T15:10:45;98526.47;;;4.63;100.00
25664;BME280;13522;50.018;20.014;2023-12-14T15:20:05;98522.76;;;4.66;100.00
25664;BME280;13522;50.018;20.014;2023-12-14T15:24:19;98531.73;;;4.63;100.00
25664;BME280;13522;50.018;20.014;2023-12-14T15:28:37;98532.34;;;4.67;100.00
25664;BME280;13522;50.018;20.014;2023-12-14T15:40:40;98550.63;;;4.68;100.00
25664;BME280;13522;50.018;20.014;2023-12-14T15:44:40;98551.36;;;4.70;100.00
25664;BME280;13522;50.018;20.014;2023-12-14T15:48:44;98563.66;;;4.70;100.00
25664;BME280;13522;50.018;20.014;2023-12-14T15:52:36;98554.84;;;4.71;100.00
25664;BME280;13522;50.018;20.014;2023-12-14T15:59:38;98574.91;;;4.72;100.00
25664;BME280;13522;50.018;20.014;2023-12-14T16:03:20;98575.36;;;4.66;100.00
25664;BME280;13522;50.018;20.014;2023-12-14T16:22:02;98604.49;;;4.75;100.00
25664;BME280;13522;50.018;20.014;2023-12-14T16:40:18;98631.84;;;4.73;100.00
25664;BME280;13522;50.018;20.014;2023-12-14T19:49:04;98870.27;;;4.61;100.00
25664;BME280;13522;50.018;20.014;2023-12-14T20:17:09;98919.02;;;4.40;100.00
25664;BME280;13522;50.018;20.014;2023-12-14T20:56:27;98983.41;;;4.20;100.00
25664;BME280;13522;50.018;20.014;2023-12-14T20:59:45;98987.34;;;4.27;100.00
25664;BME280;13522;50.018;20.014;2023-12-14T21:03:01;98991.11;;;4.23;100.00
25664;BME280;13522;50.018;20.014;2023-12-14T21:06:18;98986.03;;;4.20;100.00
25664;BME280;13522;50.018;20.014;2023-12-14T21:09:35;98999.17;;;4.20;100.00
25664;BME280;13522;50.018;20.014;2023-12-14T21:12:48;99001.63;;;4.23;100.00
25664;BME280;13522;50.018;20.014;2023-12-14T21:16:03;98994.48;;;4.25;100.00
25664;BME280;13522;50.018;20.014;2023-12-14T21:19:19;98995.23;;;4.27;100.00
25664;BME280;13522;50.018;20.014;2023-12-14T21:22:34;99009.87;;;4.31;100.00
25664;BME280;13522;50.018;20.014;2023-12-14T21:25:47;99009.02;;;4.31;100.00
25664;BME280;13522;50.018;20.014;2023-12-14T21:29:04;99013.42;;;4.30;100.00
25664;BME280;13522;50.018;20.014;2023-12-14T21:32:19;99023.02;;;4.31;100.00
25664;BME280;13522;50.018;20.014;2023-12-14T21:35:34;99025.64;;;4.31;100.00
25664;BME280;13522;50.018;20.014;2023-12-14T21:38:47;99032.57;;;4.32;100.00
25664;BME280;13522;50.018;20.014;2023-12-14T21:42:02;99037.83;;;4.32;100.00
25664;BME280;13522;50.018;20.014;2023-12-14T21:45:15;99036.34;;;4.28;100.00
25664;BME280;13522;50.018;20.014;2023-12-14T21:48:28;99043.47;;;4.26;100.00
25664;BME280;13522;50.018;20.014;2023-12-14T21:51:43;99046.00;;;4.28;100.00
25664;BME280;13522;50.018;20.014;2023-12-14T21:54:56;99055.13;;;4.22;100.00
25664;BME280;13522;50.018;20.014;2023-12-14T21:58:09;99065.53;;;4.24;100.00
25664;BME280;13522;50.018;20.014;2023-12-14T22:01:24;99067.23;;;4.25;100.00
25664;BME280;13522;50.018;20.014;2023-12-14T22:04:38;99073.52;;;4.22;100.00
25664;BME280;13522;50.018;20.014;2023-12-14T22:07:51;99082.75;;;4.15;100.00
25664;BME280;13522;50.018;20.014;2023-12-14T22:11:06;99089.51;;;4.05;100.00
25664;BME280;13522;50.018;20.014;2023-12-14T22:14:21;99100.94;;;4.04;100.00
25664;BME280;13522;50.018;20.014;2023-12-14T22:17:34;99101.69;;;4.06;100.00
25664;BME280;13522;50.018;20.014;2023-12-14T22:20:49;99117.28;;;3.95;100.00
25664;BME280;13522;50.018;20.014;2023-12-14T22:24:05;99115.78;;;3.91;100.00
25664;BME280;13522;50.018;20.014;2023-12-14T22:27:20;99124.59;;;3.90;100.00
25664;BME280;13522;50.018;20.014;2023-12-14T22:30:33;99132.66;;;3.87;100.00
25664;BME280;13522;50.018;20.014;2023-12-14T22:33:46;99126.29;;;3.91;100.00
25664;BME280;13522;50.018;20.014;2023-12-14T22:36:59;99138.88;;;3.86;100.00
25664;BME280;13522;50.018;20.014;2023-12-14T22:40:13;99146.00;;;3.84;100.00
25664;BME280;13522;50.018;20.014;2023-12-14T22:43:26;99148.23;;;3.90;100.00
25664;BME280;13522;50.018;20.014;2023-12-14T22:46:41;99148.23;;;3.90;100.00
25664;BME280;13522;50.018;20.014;2023-12-14T22:49:54;99159.48;;;3.92;100.00
25664;BME280;13522;50.018;20.014;2023-12-14T22:53:07;99157.45;;;3.97;100.00
25664;BME280;13522;50.018;20.014;2023-12-14T22:56:27;99158.30;;;3.98;100.00
25664;BME280;13522;50.018;20.014;2023-12-14T22:59:39;99171.88;;;3.90;100.00
25664;BME280;13522;50.018;20.014;2023-12-14T23:02:52;99170.20;;;3.89;100.00
25664;BME280;13522;50.018;20.014;2023-12-14T23:06:07;99179.69;;;3.92;100.00
25664;BME280;13522;50.018;20.014;2023-12-14T23:09:20;99178.94;;;3.90;100.00
25664;BME280;13522;50.018;20.014;2023-12-14T23:12:35;99179.30;;;3.84;100.00
25664;BME280;13522;50.018;20.014;2023-12-14T23:15:47;99191.41;;;3.86;100.00
25664;BME280;13522;50.018;20.014;2023-12-14T23:19:00;99182.09;;;3.81;100.00
25664;BME280;13522;50.018;20.014;2023-12-14T23:22:16;99192.60;;;3.81;100.00
25664;BME280;13522;50.018;20.014;2023-12-14T23:25:28;99198.21;;;3.75;100.00
25664;BME280;13522;50.018;20.014;2023-12-14T23:28:41;99202.64;;;3.74;100.00
25664;BME280;13522;50.018;20.014;2023-12-14T23:31:54;99218.11;;;3.79;100.00
25664;BME280;13522;50.018;20.014;2023-12-14T23:35:08;99208.55;;;3.78;100.00
25664;BME280;13522;50.018;20.014;2023-12-14T23:38:21;99205.83;;;3.79;100.00
25664;BME280;13522;50.018;20.014;2023-12-14T23:41:35;99212.95;;;3.77;100.00
25664;BME280;13522;50.018;20.014;2023-12-14T23:44:48;99213.81;;;3.78;100.00
25664;BME280;13522;50.018;20.014;2023-12-14T23:48:01;99228.31;;;3.69;100.00
25664;BME280;13522;50.018;20.014;2023-12-14T23:51:14;99231.70;;;3.71;100.00
25664;BME280;13522;50.018;20.014;2023-12-14T23:54:28;99231.95;;;3.67;100.00
25664;BME280;13522;50.018;20.014;2023-12-14T23:57:41;99234.33;;;3.71;100.00
